Time;durP1;ratioP1;P1;durP2;ratioP2;P2;SDS_P1;SDS_P2;PMS_P1;PMS_P2;Temp;Humidity;BMP_temperature;BMP_pressure;BME280_temperature;BME280_humidity;BME280_pressure;Samples;Min_cycle;Max_cycle;Signal;HPM_P1;HPM_P2
2023/05/06 00:00:48;;;;;;;3.10;2.93;;;20.10;67.90;;;;;;5008448;28;45866;-70
2023/05/06 00:03:16;;;;;;;3.17;3.07;;;20.00;68.20;;;;;;5011565;28;45012;-70
2023/05/06 00:05:44;;;;;;;3.10;3.00;;;20.00;68.20;;;;;;5009302;28;43936;-70
2023/05/06 00:08:12;;;;;;;2.50;2.40;;;20.00;68.30;;;;;;5030598;28;43427;-69
2023/05/06 00:10:42;;;;;;;2.90;2.80;;;20.00;68.20;;;;;;5000102;28;46018;-69
2023/05/06 00:13:10;;;;;;;2.67;2.57;;;20.00;68.20;;;;;;5034377;28;43440;-70
2023/05/06 00:15:38;;;;;;;2.90;2.80;;;19.90;68.50;;;;;;5018635;28;43530;-69
2023/05/06 00:18:06;;;;;;;2.20;2.20;;;19.90;68.50;;;;;;5027087;28;43618;-71
2023/05/06 00:20:34;;;;;;;2.40;2.33;;;19.90;68.40;;;;;;5024695;28;43633;-70
2023/05/06 00:23:02;;;;;;;2.30;2.30;;;19.90;68.30;;;;;;5033100;28;43390;-70
2023/05/06 00:25:30;;;;;;;2.70;2.60;;;19.90;68.30;;;;;;5020495;28;43945;-70
2023/05/06 00:27:59;;;;;;;2.57;2.53;;;19.80;68.50;;;;;;5021385;28;43500;-69
2023/05/06 00:30:28;;;;;;;2.53;2.43;;;19.90;68.70;;;;;;5031632;28;43612;-72
2023/05/06 00:32:56;;;;;;;2.77;2.67;;;20.00;68.50;;;;;;5033224;28;43567;-70
2023/05/06 00:35:23;;;;;;;2.70;2.60;;;20.10;68.20;;;;;;5007299;28;43420;-70
2023/05/06 00:37:56;;;;;;;2.13;2.10;;;20.20;67.70;;;;;;5005188;28;44058;-70
2023/05/06 00:40:24;;;;;;;2.20;2.10;;;20.20;67.50;;;;;;5029439;28;43981;-70
2023/05/06 00:42:52;;;;;;;2.53;2.43;;;20.20;67.40;;;;;;5032476;28;43469;-70
2023/05/06 00:45:21;;;;;;;2.17;2.17;;;20.20;67.60;;;;;;5032261;28;43455;-72
2023/05/06 00:47:50;;;;;;;2.00;2.00;;;20.10;67.60;;;;;;5025544;28;43930;-70
2023/05/06 00:50:18;;;;;;;2.40;2.30;;;20.00;68.00;;;;;;5025886;28;43684;-69
2023/05/06 00:52:46;;;;;;;2.33;2.33;;;20.00;68.30;;;;;;5008923;28;45081;-70
2023/05/06 00:55:14;;;;;;;2.23;2.20;;;20.00;68.30;;;;;;5001974;28;43621;-70
2023/05/06 00:57:42;;;;;;;2.30;2.20;;;20.00;68.20;;;;;;5026056;28;43503;-70
2023/05/06 01:00:11;;;;;;;2.40;2.40;;;19.90;68.20;;;;;;5008905;28;45719;-70
2023/05/06 01:02:40;;;;;;;2.40;2.30;;;19.90;68.20;;;;;;5017309;28;43931;-70
2023/05/06 01:05:14;;;;;;;2.40;2.30;;;19.90;68.50;;;;;;5024077;28;43616;-69
2023/05/06 01:07:44;;;;;;;2.03;2.03;;;19.90;68.40;;;;;;5017938;28;44090;-70
2023/05/06 01:10:17;;;;;;;2.33;2.23;;;20.00;68.30;;;;;;5011792;28;45813;-70
2023/05/06 01:12:49;;;;;;;2.27;2.17;;;20.10;68.00;;;;;;5014727;28;43673;-69
2023/05/06 01:15:21;;;;;;;2.50;2.40;;;20.10;67.90;;;;;;5022082;28;43440;-68
2023/05/06 01:17:51;;;;;;;2.30;2.20;;;20.00;67.90;;;;;;5029055;28;43541;-68
2023/05/06 01:20:19;;;;;;;2.20;2.20;;;20.00;68.10;;;;;;5018211;28;43553;-70
2023/05/06 01:22:47;;;;;;;2.27;2.20;;;20.00;68.00;;;;;;5030940;28;43477;-69
2023/05/06 01:25:20;;;;;;;2.00;2.00;;;20.00;67.90;;;;;;5011584;28;43466;-68
2023/05/06 01:27:48;;;;;;;2.20;2.20;;;20.00;68.00;;;;;;5030586;28;43472;-68
2023/05/06 01:30:16;;;;;;;2.33;2.33;;;19.90;68.00;;;;;;5002428;28;45446;-69
2023/05/06 01:32:50;;;;;;;2.00;2.00;;;19.90;68.30;;;;;;5014359;28;43448;-68
2023/05/06 01:35:21;;;;;;;2.10;2.10;;;19.90;68.30;;;;;;5019174;28;43456;-70
2023/05/06 01:37:54;;;;;;;2.30;2.30;;;19.90;68.20;;;;;;5026623;28;43517;-70
2023/05/06 01:40:25;;;;;;;2.00;2.00;;;19.90;68.20;;;;;;5022265;28;43907;-71
2023/05/06 01:42:53;;;;;;;2.10;2.10;;;19.80;68.20;;;;;;5010884;28;44492;-69
2023/05/06 01:45:21;;;;;;;2.47;2.43;;;19.80;68.50;;;;;;5010170;28;43501;-71
2023/05/06 01:47:49;;;;;;;2.43;2.37;;;19.80;68.50;;;;;;5017330;28;43474;-69
2023/05/06 01:50:17;;;;;;;2.27;2.27;;;19.90;68.30;;;;;;4999912;28;45615;-69
2023/05/06 01:52:45;;;;;;;1.97;1.97;;;20.00;68.10;;;;;;5037830;28;43415;-70
2023/05/06 01:55:13;;;;;;;1.90;1.90;;;20.00;67.90;;;;;;5039169;28;44003;-71
2023/05/06 01:57:42;;;;;;;2.10;2.10;;;20.00;67.90;;;;;;5024797;28;43468;-70
2023/05/06 02:00:11;;;;;;;2.10;2.10;;;20.00;68.00;;;;;;5040408;28;43954;-70
2023/05/06 02:02:39;;;;;;;2.00;2.00;;;20.00;68.00;;;;;;5025131;28;44076;-70
2023/05/06 02:05:08;;;;;;;1.70;1.70;;;20.00;68.00;;;;;;4994877;28;43642;-71
2023/05/06 02:07:41;;;;;;;2.17;2.13;;;20.00;68.00;;;;;;4997110;28;43580;-69
2023/05/06 02:10:10;;;;;;;2.10;2.10;;;19.90;68.00;;;;;;4997773;28;44181;-69
2023/05/06 02:12:43;;;;;;;2.10;2.10;;;19.90;68.20;;;;;;4992652;28;43481;-71
2023/05/06 02:15:11;;;;;;;1.87;1.87;;;19.90;68.20;;;;;;4999040;28;43500;-70
2023/05/06 02:17:39;;;;;;;2.13;2.13;;;19.90;68.20;;;;;;5003576;28;43554;-70
2023/05/06 02:20:09;;;;;;;2.10;2.10;;;19.90;68.20;;;;;;4999049;28;45700;-68
2023/05/06 02:22:37;;;;;;;2.20;2.20;;;19.80;68.10;;;;;;5013839;28;44893;-69
2023/05/06 02:25:07;;;;;;;2.27;2.17;;;19.80;68.30;;;;;;5009169;28;44157;-70
2023/05/06 02:27:35;;;;;;;2.10;2.10;;;19.80;68.40;;;;;;5016641;28;43461;-70
2023/05/06 02:30:06;;;;;;;2.00;2.00;;;19.90;68.20;;;;;;5016743;28;43823;-70
2023/05/06 02:32:34;;;;;;;2.20;2.10;;;20.00;67.90;;;;;;5010214;28;44062;-69
2023/05/06 02:35:03;;;;;;;2.50;2.40;;;20.10;67.80;;;;;;4998803;28;43469;-70
2023/05/06 02:37:31;;;;;;;2.30;2.30;;;20.10;67.70;;;;;;5014096;28;43565;-69
2023/05/06 02:40:01;;;;;;;2.13;2.13;;;20.00;67.80;;;;;;4997031;28;44065;-71
2023/05/06 02:42:33;;;;;;;2.00;2.00;;;20.00;67.90;;;;;;5002703;28;44827;-70
2023/05/06 02:45:06;;;;;;;2.27;2.27;;;20.00;67.90;;;;;;4999620;28;43634;-72
2023/05/06 02:47:37;;;;;;;2.00;2.00;;;20.00;67.90;;;;;;5014929;28;43377;-70
2023/05/06 02:50:05;;;;;;;2.30;2.30;;;19.90;67.80;;;;;;4995381;28;45568;-69
2023/05/06 02:52:34;;;;;;;2.23;2.23;;;19.90;68.20;;;;;;5011541;28;43496;-69
2023/05/06 02:55:02;;;;;;;2.20;2.20;;;19.90;68.20;;;;;;4994918;28;43408;-70
2023/05/06 02:57:30;;;;;;;2.10;2.10;;;19.90;68.20;;;;;;5013286;28;43799;-69
2023/05/06 02:59:58;;;;;;;2.10;2.10;;;19.80;68.10;;;;;;5000374;28;44770;-70
2023/05/06 03:02:27;;;;;;;2.10;2.10;;;19.80;68.10;;;;;;5019422;28;43837;-68
2023/05/06 03:04:55;;;;;;;2.20;2.20;;;19.80;68.20;;;;;;5021315;28;43588;-69
2023/05/06 03:07:23;;;;;;;2.30;2.30;;;19.80;68.30;;;;;;5023161;28;43592;-68
2023/05/06 03:09:51;;;;;;;2.20;2.20;;;19.90;68.20;;;;;;5006565;28;45638;-70
2023/05/06 03:12:19;;;;;;;2.07;2.07;;;20.10;67.70;;;;;;5009614;28;44564;-71
2023/05/06 03:14:47;;;;;;;2.30;2.23;;;20.20;67.30;;;;;;5005172;28;43653;-69
2023/05/06 03:17:15;;;;;;;2.17;2.17;;;20.20;67.20;;;;;;5006960;28;43539;-69
2023/05/06 03:19:44;;;;;;;2.17;2.17;;;20.20;67.20;;;;;;5024462;28;43996;-69
2023/05/06 03:22:13;;;;;;;2.00;2.00;;;20.10;67.20;;;;;;5005138;28;44496;-69
2023/05/06 03:24:45;;;;;;;2.07;2.07;;;20.00;67.40;;;;;;5015859;28;44147;-69
2023/05/06 03:27:13;;;;;;;1.90;1.90;;;20.00;67.60;;;;;;5002797;28;43572;-69
2023/05/06 03:29:43;;;;;;;2.03;2.03;;;19.90;67.90;;;;;;5005180;28;44046;-69
2023/05/06 03:32:13;;;;;;;1.90;1.90;;;19.90;68.00;;;;;;5021297;28;43521;-69
2023/05/06 03:34:44;;;;;;;1.83;1.83;;;19.90;68.00;;;;;;5010489;28;43425;-68
2023/05/06 03:37:18;;;;;;;1.80;1.80;;;19.80;67.90;;;;;;5003830;28;43655;-68
2023/05/06 03:39:51;;;;;;;1.90;1.90;;;19.80;68.10;;;;;;5008931;28;44059;-69
2023/05/06 03:42:24;;;;;;;1.73;1.73;;;19.80;68.20;;;;;;5013629;28;44759;-69
2023/05/06 03:44:53;;;;;;;1.90;1.90;;;19.80;68.10;;;;;;5025223;28;43491;-68
2023/05/06 03:47:22;;;;;;;1.80;1.80;;;19.80;68.10;;;;;;5009676;28;43497;-71
2023/05/06 03:49:51;;;;;;;1.80;1.80;;;19.80;68.10;;;;;;5003835;28;45967;-68
2023/05/06 03:52:19;;;;;;;1.90;1.80;;;19.80;68.20;;;;;;5007376;28;43645;-68
2023/05/06 03:54:48;;;;;;;1.87;1.87;;;19.70;68.30;;;;;;5016201;28;43553;-70
2023/05/06 03:57:16;;;;;;;1.63;1.63;;;19.80;68.40;;;;;;5011820;28;43588;-71
2023/05/06 03:59:44;;;;;;;1.70;1.70;;;19.90;68.20;;;;;;5023125;28;43602;-70
2023/05/06 04:02:12;;;;;;;1.80;1.80;;;20.00;67.90;;;;;;5009861;28;46519;-71
2023/05/06 04:04:40;;;;;;;1.80;1.80;;;20.10;67.50;;;;;;5021140;28;43475;-72
2023/05/06 04:07:09;;;;;;;1.80;1.80;;;20.20;67.30;;;;;;5025316;28;43913;-70
2023/05/06 04:09:37;;;;;;;1.70;1.70;;;20.10;67.20;;;;;;5028455;28;43830;-69
2023/05/06 04:12:08;;;;;;;1.70;1.70;;;20.10;67.20;;;;;;5007989;28;45260;-70
2023/05/06 04:14:37;;;;;;;1.60;1.60;;;20.00;67.30;;;;;;5005570;28;43492;-69
2023/05/06 04:17:06;;;;;;;1.60;1.60;;;20.00;67.60;;;;;;5022768;28;43533;-70
2023/05/06 04:19:33;;;;;;;1.40;1.40;;;19.90;67.80;;;;;;5022775;28;43762;-70
2023/05/06 04:22:03;;;;;;;1.70;1.70;;;19.90;67.90;;;;;;5022491;28;44707;-71
2023/05/06 04:24:32;;;;;;;1.63;1.63;;;19.90;67.80;;;;;;5008541;28;43457;-72
2023/05/06 04:27:03;;;;;;;1.50;1.50;;;19.90;67.90;;;;;;5021908;28;43956;-70
2023/05/06 04:29:31;;;;;;;1.50;1.50;;;19.80;68.00;;;;;;5003473;28;44042;-72
2023/05/06 04:32:01;;;;;;;1.60;1.60;;;19.80;68.10;;;;;;5006236;28;44896;-72
2023/05/06 04:34:31;;;;;;;1.40;1.40;;;19.80;68.10;;;;;;5015900;28;43413;-72
2023/05/06 04:37:04;;;;;;;1.60;1.60;;;19.80;68.80;;;;;;5000810;28;43556;-70
2023/05/06 04:39:43;;;;;;;1.40;1.40;;;19.80;68.10;;;;;;5004951;28;44046;-70
2023/05/06 04:42:11;;;;;;;1.43;1.43;;;19.80;68.10;;;;;;5029367;28;43456;-69
2023/05/06 04:44:45;;;;;;;1.67;1.67;;;19.80;68.20;;;;;;5005991;28;43511;-70
2023/05/06 04:47:19;;;;;;;1.30;1.30;;;19.80;68.10;;;;;;5006847;28;44046;-70
2023/05/06 04:49:51;;;;;;;1.50;1.50;;;19.90;68.00;;;;;;4999878;28;44984;-70
2023/05/06 04:52:20;;;;;;;1.70;1.70;;;20.00;67.50;;;;;;5016688;28;43989;-70
2023/05/06 04:54:50;;;;;;;1.40;1.40;;;20.20;67.30;;;;;;5006714;28;44618;-69
2023/05/06 04:57:18;;;;;;;1.30;1.30;;;20.20;66.90;;;;;;5008194;28;43997;-69
2023/05/06 04:59:46;;;;;;;1.30;1.30;;;20.20;66.90;;;;;;5005759;28;44946;-71
2023/05/06 05:02:14;;;;;;;1.47;1.47;;;20.10;66.90;;;;;;5006109;28;43742;-70
2023/05/06 05:04:43;;;;;;;1.30;1.30;;;20.10;67.10;;;;;;4995538;28;43549;-70
2023/05/06 05:07:11;;;;;;;1.57;1.57;;;20.00;67.30;;;;;;5015961;28;43407;-70
2023/05/06 05:09:39;;;;;;;1.30;1.30;;;20.00;67.60;;;;;;4998619;28;45383;-70
2023/05/06 05:12:09;;;;;;;1.30;1.30;;;19.90;67.60;;;;;;4998938;28;43885;-70
2023/05/06 05:14:42;;;;;;;1.30;1.30;;;19.90;67.60;;;;;;5014530;28;43463;-69
2023/05/06 05:17:12;;;;;;;1.30;1.30;;;19.90;67.60;;;;;;4997549;28;43887;-70
2023/05/06 05:19:41;;;;;;;1.40;1.40;;;19.90;67.70;;;;;;4996535;28;43994;-69
2023/05/06 05:22:11;;;;;;;1.30;1.30;;;19.80;67.90;;;;;;4997366;28;44728;-70
2023/05/06 05:24:39;;;;;;;1.40;1.40;;;19.80;68.00;;;;;;4996890;28;44066;-70
2023/05/06 05:27:09;;;;;;;1.10;1.10;;;19.80;67.90;;;;;;5012415;28;43428;-69
2023/05/06 05:29:38;;;;;;;1.30;1.30;;;19.80;67.80;;;;;;4993628;28;44057;-70
2023/05/06 05:32:08;;;;;;;1.40;1.40;;;19.80;67.90;;;;;;4999804;28;44603;-72
2023/05/06 05:34:36;;;;;;;1.40;1.40;;;19.80;68.10;;;;;;5003865;28;43393;-69
2023/05/06 05:37:04;;;;;;;1.23;1.23;;;19.80;68.10;;;;;;5018761;28;43484;-70
2023/05/06 05:39:34;;;;;;;1.27;1.27;;;19.80;68.00;;;;;;5000050;28;43813;-70
2023/05/06 05:42:02;;;;;;;1.37;1.37;;;20.00;67.80;;;;;;5016007;28;43514;-69
2023/05/06 05:44:33;;;;;;;1.30;1.30;;;20.10;67.20;;;;;;5002457;28;43433;-73
2023/05/06 05:47:02;;;;;;;1.30;1.30;;;20.20;67.00;;;;;;5019670;28;44008;-71
2023/05/06 05:49:31;;;;;;;1.20;1.20;;;20.20;66.90;;;;;;5000439;28;45595;-69
2023/05/06 05:51:59;;;;;;;1.10;1.10;;;20.10;66.90;;;;;;5017535;28;44438;-69
2023/05/06 05:54:29;;;;;;;1.30;1.30;;;20.10;67.00;;;;;;4997965;28;43467;-70
2023/05/06 05:56:57;;;;;;;1.27;1.27;;;20.00;67.10;;;;;;5024001;28;43376;-69
2023/05/06 05:59:27;;;;;;;1.40;1.40;;;20.00;67.60;;;;;;4996398;28;44749;-69
2023/05/06 06:02:06;;;;;;;1.10;1.10;;;19.90;67.60;;;;;;4998533;28;43948;-71
2023/05/06 06:04:34;;;;;;;1.30;1.30;;;19.90;67.60;;;;;;5007589;28;43425;-70
2023/05/06 06:07:03;;;;;;;1.03;1.03;;;19.80;67.50;;;;;;5008644;28;43955;-70
2023/05/06 06:09:36;;;;;;;1.20;1.20;;;19.80;67.60;;;;;;5009771;28;43995;-70
2023/05/06 06:12:07;;;;;;;1.20;1.20;;;19.80;67.90;;;;;;5001999;28;44254;-72
2023/05/06 06:14:39;;;;;;;1.30;1.30;;;19.80;68.10;;;;;;5007047;28;43536;-70
2023/05/06 06:17:09;;;;;;;1.30;1.30;;;19.80;67.90;;;;;;5010222;28;43573;-70
2023/05/06 06:19:37;;;;;;;1.13;1.13;;;19.80;67.90;;;;;;5025979;28;44116;-69
2023/05/06 06:22:05;;;;;;;1.13;1.13;;;19.70;67.90;;;;;;5015669;28;43940;-69
2023/05/06 06:24:35;;;;;;;1.10;1.10;;;19.70;68.00;;;;;;5007310;28;43429;-70
2023/05/06 06:27:03;;;;;;;1.20;1.20;;;19.70;68.10;;;;;;5026640;28;43989;-71
2023/05/06 06:29:31;;;;;;;1.10;1.10;;;19.80;68.20;;;;;;5006214;28;45997;-69
2023/05/06 06:31:59;;;;;;;1.20;1.20;;;19.90;68.00;;;;;;5013795;28;45412;-69
2023/05/06 06:34:28;;;;;;;1.00;1.00;;;20.00;67.40;;;;;;5003708;28;43539;-69
2023/05/06 06:36:56;;;;;;;1.00;1.00;;;20.10;67.20;;;;;;5009317;28;43558;-69
2023/05/06 06:39:24;;;;;;;1.30;1.30;;;20.10;67.00;;;;;;5023353;28;43909;-69
2023/05/06 06:41:52;;;;;;;1.10;1.10;;;20.10;67.00;;;;;;5012145;28;45002;-68
2023/05/06 06:44:23;;;;;;;1.10;1.10;;;20.00;67.00;;;;;;5003735;28;44218;-69
2023/05/06 06:46:51;;;;;;;1.10;1.10;;;20.00;67.20;;;;;;5029103;28;43536;-70
2023/05/06 06:49:19;;;;;;;1.10;1.10;;;19.90;67.40;;;;;;5028047;28;43773;-69
2023/05/06 06:51:48;;;;;;;1.10;1.10;;;19.90;67.70;;;;;;5008846;28;45161;-69
2023/05/06 06:54:16;;;;;;;0.90;0.90;;;19.80;67.60;;;;;;5021622;28;44056;-70
2023/05/06 06:56:44;;;;;;;1.03;1.03;;;19.80;67.60;;;;;;5029432;28;43730;-69
2023/05/06 06:59:12;;;;;;;0.97;0.97;;;19.80;67.70;;;;;;5024116;28;43953;-68
2023/05/06 07:01:40;;;;;;;1.07;1.07;;;19.80;67.90;;;;;;5021227;28;43431;-69
2023/05/06 07:04:08;;;;;;;1.00;1.00;;;19.70;68.00;;;;;;5027891;28;44120;-69
2023/05/06 07:06:36;;;;;;;1.10;1.10;;;19.80;68.00;;;;;;5018389;28;43468;-70
2023/05/06 07:09:06;;;;;;;1.10;1.10;;;19.70;68.00;;;;;;5022386;28;45141;-70
2023/05/06 07:11:34;;;;;;;1.20;1.20;;;19.70;67.90;;;;;;5021762;28;43469;-69
2023/05/06 07:14:02;;;;;;;1.30;1.20;;;19.70;68.00;;;;;;5003020;28;43467;-70
2023/05/06 07:16:30;;;;;;;1.20;1.20;;;19.70;68.20;;;;;;5023770;28;43413;-70
2023/05/06 07:18:58;;;;;;;1.20;1.20;;;19.70;68.20;;;;;;5028641;28;43609;-68
2023/05/06 07:21:25;;;;;;;1.20;1.20;;;19.80;68.10;;;;;;5019799;28;43559;-68
2023/05/06 07:23:53;;;;;;;1.20;1.20;;;19.90;67.70;;;;;;5018631;28;43604;-70
2023/05/06 07:26:23;;;;;;;1.27;1.27;;;20.10;67.40;;;;;;5018415;28;43804;-68
2023/05/06 07:28:50;;;;;;;1.00;1.00;;;20.10;67.10;;;;;;5008188;28;46073;-71
2023/05/06 07:31:19;;;;;;;1.20;1.20;;;20.10;67.00;;;;;;5018527;28;43772;-69
2023/05/06 07:33:48;;;;;;;1.10;1.10;;;20.00;67.00;;;;;;5026463;28;43430;-70
2023/05/06 07:36:16;;;;;;;1.20;1.20;;;20.00;67.20;;;;;;5030161;28;43512;-71
2023/05/06 07:38:44;;;;;;;1.30;1.30;;;19.90;67.40;;;;;;5023341;28;43616;-69
2023/05/06 07:41:11;;;;;;;1.20;1.20;;;19.80;67.80;;;;;;5017402;28;45097;-69
2023/05/06 07:43:41;;;;;;;1.10;1.10;;;19.80;67.80;;;;;;5036868;28;43959;-68
2023/05/06 07:46:09;;;;;;;1.20;1.20;;;19.80;67.80;;;;;;5036150;28;43584;-68
2023/05/06 07:48:37;;;;;;;1.20;1.20;;;19.80;67.90;;;;;;5023954;28;43583;-69
2023/05/06 07:51:06;;;;;;;1.20;1.20;;;19.70;68.00;;;;;;5034573;28;43392;-68
2023/05/06 07:53:34;;;;;;;1.13;1.13;;;19.70;68.20;;;;;;5021129;28;44053;-70
2023/05/06 07:56:02;;;;;;;1.20;1.20;;;19.70;68.20;;;;;;5031002;28;43468;-69
2023/05/06 07:58:30;;;;;;;1.30;1.20;;;19.70;68.00;;;;;;5035365;28;43886;-68
2023/05/06 08:01:00;;;;;;;1.20;1.20;;;19.70;68.10;;;;;;5040976;28;43336;-69
2023/05/06 08:03:28;;;;;;;1.23;1.23;;;19.60;68.10;;;;;;5037805;28;43404;-69
2023/05/06 08:05:56;;;;;;;1.20;1.20;;;19.70;68.40;;;;;;5032780;28;43446;-69
2023/05/06 08:08:26;;;;;;;1.10;1.10;;;19.70;68.50;;;;;;5034153;28;43932;-69
2023/05/06 08:10:54;;;;;;;1.33;1.33;;;19.70;68.30;;;;;;5031692;28;43502;-69
2023/05/06 08:13:22;;;;;;;1.10;1.10;;;19.90;68.10;;;;;;5029899;28;44032;-69
2023/05/06 08:15:50;;;;;;;1.40;1.40;;;20.00;67.60;;;;;;5035658;28;43432;-69
2023/05/06 08:18:19;;;;;;;1.50;1.50;;;20.00;67.50;;;;;;5031969;28;43625;-68
2023/05/06 08:20:51;;;;;;;1.40;1.40;;;20.00;67.40;;;;;;5037734;28;43387;-69
2023/05/06 08:23:20;;;;;;;1.03;1.03;;;20.00;67.50;;;;;;5039688;28;43436;-70
2023/05/06 08:25:48;;;;;;;1.40;1.40;;;19.90;67.50;;;;;;5046343;28;43437;-70
2023/05/06 08:28:19;;;;;;;1.30;1.30;;;19.80;67.80;;;;;;5033903;28;44020;-69
2023/05/06 08:30:50;;;;;;;1.20;1.20;;;19.80;68.10;;;;;;5027727;28;43384;-71
2023/05/06 08:33:19;;;;;;;1.23;1.23;;;19.80;68.10;;;;;;5036034;28;43420;-69
2023/05/06 08:35:49;;;;;;;1.20;1.20;;;19.70;68.00;;;;;;5026025;28;43480;-69
2023/05/06 08:38:17;;;;;;;1.47;1.37;;;19.70;68.00;;;;;;5030717;28;43781;-70
2023/05/06 08:40:45;;;;;;;1.23;1.23;;;19.70;68.20;;;;;;5020500;28;43508;-70
2023/05/06 08:43:14;;;;;;;1.50;1.40;;;19.70;68.60;;;;;;5033311;28;43467;-69
2023/05/06 08:45:42;;;;;;;1.53;1.40;;;19.80;68.60;;;;;;5024197;28;43597;-69
2023/05/06 08:48:10;;;;;;;1.73;1.40;;;19.80;68.20;;;;;;5023763;28;43771;-69
2023/05/06 08:50:42;;;;;;;1.53;1.53;;;19.90;68.20;;;;;;5012442;28;44964;-71
2023/05/06 08:53:10;;;;;;;2.70;1.33;;;19.90;68.00;;;;;;5021304;28;43445;-69
2023/05/06 08:55:39;;;;;;;1.40;1.40;;;19.80;68.10;;;;;;5037931;28;43442;-69
2023/05/06 08:58:07;;;;;;;1.40;1.40;;;19.80;68.20;;;;;;5030992;28;43850;-69
2023/05/06 09:00:35;;;;;;;1.20;1.20;;;19.80;68.10;;;;;;5020527;28;43704;-68
2023/05/06 09:03:03;;;;;;;1.30;1.23;;;19.80;68.10;;;;;;5031315;28;43498;-69
2023/05/06 09:05:31;;;;;;;1.40;1.30;;;19.80;68.20;;;;;;5041698;28;43911;-71
2023/05/06 09:08:01;;;;;;;1.30;1.30;;;19.70;68.50;;;;;;5034585;28;43642;-68
2023/05/06 09:10:31;;;;;;;1.47;1.47;;;19.70;68.70;;;;;;5041077;28;44242;-69
2023/05/06 09:12:59;;;;;;;1.43;1.33;;;19.70;68.50;;;;;;5045212;28;43493;-69
2023/05/06 09:15:27;;;;;;;4.37;1.37;;;19.70;68.50;;;;;;5036990;28;43520;-69
2023/05/06 09:17:56;;;;;;;1.60;1.60;;;19.70;68.60;;;;;;5037464;28;43854;-69
2023/05/06 09:20:26;;;;;;;1.07;1.07;;;19.70;68.70;;;;;;5024913;28;43431;-68
2023/05/06 09:22:54;;;;;;;1.60;1.50;;;19.60;68.90;;;;;;5040787;28;43547;-69
2023/05/06 09:25:23;;;;;;;4.03;1.33;;;19.70;68.90;;;;;;5045502;28;43509;-69
2023/05/06 09:27:51;;;;;;;1.50;1.40;;;19.80;68.70;;;;;;5039690;28;43909;-69
2023/05/06 09:30:20;;;;;;;1.37;1.37;;;19.90;68.30;;;;;;5038461;28;43428;-69
2023/05/06 09:32:48;;;;;;;1.13;1.13;;;19.90;68.20;;;;;;5017161;28;43388;-70
2023/05/06 09:35:16;;;;;;;1.47;1.47;;;19.90;68.20;;;;;;5038655;28;43481;-69
2023/05/06 09:37:44;;;;;;;3.10;1.90;;;19.80;68.50;;;;;;5031813;28;43905;-70
2023/05/06 09:40:13;;;;;;;2.30;2.07;;;19.90;68.40;;;;;;5021736;28;43556;-69
2023/05/06 09:42:43;;;;;;;2.20;2.00;;;19.80;68.20;;;;;;5023697;28;43577;-69
2023/05/06 09:45:11;;;;;;;3.37;2.10;;;19.80;68.20;;;;;;5022286;28;43689;-71
2023/05/06 09:47:40;;;;;;;3.47;2.70;;;19.80;68.40;;;;;;5020421;28;43884;-69
2023/05/06 09:50:10;;;;;;;7.13;2.77;;;19.70;68.40;;;;;;5021201;28;43464;-68
2023/05/06 09:52:38;;;;;;;4.93;2.70;;;19.70;69.30;;;;;;5022932;28;43476;-69
2023/05/06 09:55:06;;;;;;;2.97;2.70;;;19.70;68.40;;;;;;5005265;28;43506;-71
2023/05/06 09:57:35;;;;;;;4.63;2.83;;;19.70;68.50;;;;;;5022483;28;44203;-70
2023/05/06 10:00:07;;;;;;;4.20;2.90;;;19.70;68.60;;;;;;5022118;28;43464;-69
2023/05/06 10:02:39;;;;;;;5.80;3.20;;;19.70;68.80;;;;;;5021675;28;43440;-69
2023/05/06 10:05:09;;;;;;;4.13;2.90;;;19.60;68.90;;;;;;5024211;28;43469;-68
2023/05/06 10:07:37;;;;;;;4.90;3.17;;;19.60;68.30;;;;;;5006033;28;45409;-69
2023/05/06 10:10:07;;;;;;;7.37;3.10;;;19.70;68.10;;;;;;5023699;28;45382;-69
2023/05/06 10:12:35;;;;;;;6.23;3.17;;;19.90;67.90;;;;;;5019867;28;43446;-70
2023/05/06 10:15:06;;;;;;;2.97;2.77;;;20.00;67.70;;;;;;5024001;28;43519;-69
2023/05/06 10:17:35;;;;;;;5.97;3.33;;;20.00;67.70;;;;;;5021377;28;43875;-70
2023/05/06 10:20:03;;;;;;;2.93;2.73;;;20.00;67.70;;;;;;5019679;28;43480;-70
2023/05/06 10:22:38;;;;;;;3.70;3.07;;;19.90;67.80;;;;;;5023582;28;43508;-70
2023/05/06 10:25:11;;;;;;;6.30;3.20;;;19.80;68.00;;;;;;5021138;28;43614;-70
2023/05/06 10:27:41;;;;;;;6.47;3.43;;;19.80;68.30;;;;;;5024336;28;44026;-70
2023/05/06 10:30:12;;;;;;;3.53;2.93;;;19.80;68.50;;;;;;5023156;28;44122;-70
2023/05/06 10:32:42;;;;;;;3.90;2.97;;;19.80;68.40;;;;;;5020957;28;43389;-70
2023/05/06 10:35:19;;;;;;;3.37;3.03;;;19.70;68.50;;;;;;5022340;28;44100;-70
2023/05/06 10:37:47;;;;;;;4.07;3.50;;;19.70;68.50;;;;;;5022371;28;43566;-70
2023/05/06 10:40:15;;;;;;;4.40;3.10;;;19.60;68.70;;;;;;5002247;28;45439;-71
2023/05/06 10:42:43;;;;;;;5.20;3.53;;;19.70;68.90;;;;;;5020992;28;43416;-69
2023/05/06 10:45:14;;;;;;;5.00;3.33;;;19.70;68.70;;;;;;5024392;28;43536;-70
2023/05/06 10:48:08;;;;;;;5.27;3.30;;;19.70;68.80;;;;;;5021173;28;43959;-69
2023/05/06 10:50:36;;;;;;;6.50;3.80;;;19.70;68.80;;;;;;5022331;28;43813;-70
2023/05/06 10:53:04;;;;;;;6.13;3.73;;;19.60;68.90;;;;;;5004202;28;43458;-71
2023/05/06 10:55:34;;;;;;;8.30;3.40;;;19.60;69.00;;;;;;5019947;28;43491;-69
2023/05/06 10:58:12;;;;;;;7.53;3.93;;;19.80;69.00;;;;;;5003814;28;46018;-69
2023/05/06 11:00:41;;;;;;;5.87;3.17;;;19.80;68.50;;;;;;5019645;28;43469;-68
2023/05/06 11:03:11;;;;;;;4.73;3.57;;;19.90;68.30;;;;;;5020815;28;43515;-68
2023/05/06 11:05:57;;;;;;;7.07;3.40;;;19.90;68.20;;;;;;5004438;28;44725;-70
2023/05/06 11:08:25;;;;;;;3.60;3.07;;;19.90;68.40;;;;;;5023797;28;43592;-68
2023/05/06 11:10:54;;;;;;;4.20;3.13;;;19.90;68.50;;;;;;5002104;28;46154;-70
2023/05/06 11:13:23;;;;;;;6.63;3.43;;;19.90;68.40;;;;;;5022036;28;43437;-69
2023/05/06 11:15:53;;;;;;;3.17;2.83;;;19.80;68.40;;;;;;5001636;28;44287;-70
2023/05/06 11:18:43;;;;;;;3.40;3.00;;;19.80;68.50;;;;;;4998815;28;45581;-70
2023/05/06 11:21:36;;;;;;;6.03;3.23;;;19.80;69.00;;;;;;5022377;28;43457;-70
2023/05/06 11:24:09;;;;;;;6.40;4.10;;;19.80;69.00;;;;;;5020258;28;43523;-71
2023/05/06 11:26:36;;;;;;;3.90;3.60;;;19.80;68.90;;;;;;5021974;28;43465;-69
2023/05/06 11:29:05;;;;;;;8.23;4.37;;;19.80;69.00;;;;;;5004541;28;45714;-71
2023/05/06 11:31:38;;;;;;;11.40;6.40;;;19.70;69.00;;;;;;5022218;28;43496;-70
2023/05/06 11:34:11;;;;;;;9.90;5.43;;;19.70;69.40;;;;;;5016861;28;45017;-71
2023/05/06 11:36:49;;;;;;;8.23;4.90;;;19.70;69.50;;;;;;5022506;28;43487;-70
2023/05/06 11:39:17;;;;;;;6.67;4.90;;;19.80;69.20;;;;;;5022889;28;43750;-69
2023/05/06 11:41:45;;;;;;;8.67;5.37;;;19.90;68.90;;;;;;5023650;28;43521;-69
2023/05/06 11:44:26;;;;;;;8.60;5.03;;;19.90;68.70;;;;;;5024503;28;43583;-69
2023/05/06 11:46:59;;;;;;;7.97;4.80;;;19.90;68.70;;;;;;5024348;28;43494;-70
2023/05/06 11:49:27;;;;;;;7.43;5.00;;;19.90;69.00;;;;;;5020061;28;45100;-71
2023/05/06 11:51:56;;;;;;;6.83;5.07;;;19.90;68.90;;;;;;5018724;28;44079;-71
2023/05/06 11:54:26;;;;;;;7.00;4.63;;;19.90;68.80;;;;;;5020685;28;43528;-69
2023/05/06 11:56:55;;;;;;;6.73;4.53;;;19.90;69.00;;;;;;5022052;28;43477;-68
2023/05/06 11:59:28;;;;;;;8.33;4.93;;;19.80;69.00;;;;;;5019179;28;43929;-69
2023/05/06 12:01:58;;;;;;;6.47;4.70;;;19.80;69.30;;;;;;5007824;28;45054;-69
2023/05/06 12:04:27;;;;;;;6.87;4.70;;;19.80;69.20;;;;;;5007587;28;43501;-69
2023/05/06 12:06:56;;;;;;;4.23;3.83;;;19.80;69.10;;;;;;5007158;28;43520;-68
2023/05/06 12:09:24;;;;;;;5.60;4.13;;;19.80;69.20;;;;;;4986888;28;46023;-69
2023/05/06 12:11:52;;;;;;;5.37;4.10;;;19.80;69.30;;;;;;4999263;28;43505;-69
2023/05/06 12:14:19;;;;;;;6.67;4.37;;;19.70;69.40;;;;;;5006030;28;44542;-70
2023/05/06 12:16:47;;;;;;;5.77;4.33;;;19.70;69.30;;;;;;5002875;28;43459;-69
2023/05/06 12:19:17;;;;;;;5.70;4.23;;;19.70;69.20;;;;;;5001329;28;43609;-70
2023/05/06 12:21:46;;;;;;;5.40;4.20;;;19.70;69.20;;;;;;5004504;28;43877;-70
2023/05/06 12:24:14;;;;;;;7.57;4.27;;;19.70;69.20;;;;;;5005270;28;43509;-70
2023/05/06 12:26:46;;;;;;;6.07;4.13;;;19.70;69.30;;;;;;5003255;28;43516;-69
2023/05/06 12:29:18;;;;;;;5.50;4.40;;;19.70;69.50;;;;;;5005611;28;43616;-69
2023/05/06 12:31:46;;;;;;;5.33;3.97;;;19.70;69.40;;;;;;4987410;28;44959;-70
2023/05/06 12:34:16;;;;;;;4.10;3.70;;;19.90;69.30;;;;;;5005280;28;43763;-71
2023/05/06 12:36:46;;;;;;;4.83;3.80;;;20.00;69.40;;;;;;5005924;28;43529;-69
2023/05/06 12:39:14;;;;;;;5.77;3.50;;;20.10;68.40;;;;;;5006507;28;44139;-71
2023/05/06 12:41:42;;;;;;;3.70;3.40;;;20.10;68.30;;;;;;5005784;28;43521;-69
2023/05/06 12:44:31;;;;;;;3.70;3.30;;;20.00;68.20;;;;;;5001896;28;43437;-70
2023/05/06 12:46:59;;;;;;;4.13;3.70;;;20.00;68.30;;;;;;5009329;28;45190;-69
2023/05/06 12:49:27;;;;;;;12.70;3.67;;;19.90;68.40;;;;;;5004452;28;44598;-69
2023/05/06 12:52:07;;;;;;;79.80;7.83;;;19.80;68.80;;;;;;4986029;28;46062;-69
2023/05/06 12:54:35;;;;;;;45.93;6.77;;;19.80;68.50;;;;;;4986894;28;44696;-70
2023/05/06 12:57:03;;;;;;;33.10;5.83;;;19.80;68.50;;;;;;5002572;28;43426;-70